| time (UTC) | temp F | wind direction | speed knots | gust knots | rain 1hr in | rain 24hr in | rain mn in | humidity % | barometer mb |
| 20260509203046 | 72 | 360 | 0.9 | 7.8 | 0.00 | 0.00 | 0.00 | 23 | 1003.1 |
| 20260509201544 | 71 | 360 | 5.2 | 16.5 | 0.00 | 0.00 | 0.00 | 25 | 1003.4 |
| 20260509200044 | 72 | 360 | 0.9 | 7.8 | 0.00 | 0.00 | 0.00 | 27 | 1003.7 |
| 20260509194544 | 74 | 22 | 0.9 | 4.3 | 0.00 | 0.00 | 0.00 | 21 | 1003.9 |
| 20260509193044 | 71 | 360 | 1.7 | 4.3 | 0.00 | 0.00 | 0.00 | 25 | 1003.9 |
| 20260509191539 | 73 | 355 | 0.9 | 4.3 | 0.00 | 0.00 | 0.00 | 24 | 1003.9 |
| 20260509190037 | 74 | 297 | 0.9 | 5.2 | 0.00 | 0.00 | 0.00 | 23 | 1004.2 |
| 20260509184538 | 73 | 360 | 0.0 | 7.8 | 0.00 | 0.00 | 0.00 | 28 | 1004.3 |
| 20260509183034 | 72 | 338 | 1.7 | 9.6 | 0.00 | 0.00 | 0.00 | 25 | 1004.4 |
| 20260509181533 | 71 | 36 | 1.7 | 5.2 | 0.00 | 0.00 | 0.00 | 25 | 1004.4 |
| 20260509180032 | 71 | 360 | 1.7 | 9.6 | 0.00 | 0.00 | 0.00 | 27 | 1004.6 |
| 20260509174532 | 73 | 355 | 0.0 | 4.3 | 0.00 | 0.00 | 0.00 | 18 | 1004.5 |
| 20260509173033 | 73 | 20 | 0.9 | 8.7 | 0.00 | 0.00 | 0.00 | 16 | 1004.7 |
| 20260509171527 | 73 | 342 | 0.9 | 8.7 | 0.00 | 0.00 | 0.00 | 18 | 1004.6 |
| 20260509170024 | 73 | 93 | 0.0 | 2.6 | 0.00 | 0.00 | 0.00 | 18 | 1004.6 |
| 20260509164520 | 70 | 360 | 0.0 | 7.8 | 0.00 | 0.00 | 0.00 | 21 | 1004.6 |
| 20260509163020 | 70 | 360 | 0.0 | 5.2 | 0.00 | 0.00 | 0.00 | 27 | 1004.7 |
| 20260509161514 | 71 | 49 | 0.0 | 3.5 | 0.00 | 0.00 | 0.00 | 18 | 1004.7 |
| 20260509160010 | 69 | 360 | 0.0 | 8.7 | 0.00 | 0.00 | 0.00 | 24 | 1004.6 |
| 20260509154505 | 71 | 44 | 0.0 | 7.8 | 0.00 | 0.00 | 0.00 | 22 | 1004.7 |
| 20260509153103 | 70 | 360 | 0.0 | 0.0 | 0.00 | 0.00 | 0.00 | 26 | 1004.9 |
| 20260509151558 | 67 | 110 | 0.0 | 0.9 | 0.00 | 0.00 | 0.00 | 30 | 1005.2 |
| 20260509150052 | 69 | 360 | 0.0 | 0.0 | 0.00 | 0.00 | 0.00 | 29 | 1005.4 |
| 20260509144605 | 68 | 268 | 0.0 | 0.9 | 0.00 | 0.00 | 0.00 | 25 | 1005.5 |
| 20260509143044 | 63 | 268 | 0.0 | 0.0 | 0.00 | 0.00 | 0.00 | 30 | 1005.5 |
| 20260509141542 | 63 | 268 | 0.0 | 0.0 | 0.00 | 0.00 | 0.00 | 30 | 1005.5 |
| 20260509140056 | 62 | 279 | 0.0 | 0.0 | 0.00 | 0.00 | 0.00 | 32 | 1005.5 |
| 20260509134535 | 60 | 360 | 0.0 | 3.5 | 0.00 | 0.00 | 0.00 | 35 | 1005.5 |
| 20260509133033 | 60 | 252 | 0.0 | 3.5 | 0.00 | 0.00 | 0.00 | 32 | 1005.5 |
| 20260509131540 | 59 | 360 | 0.0 | 3.5 | 0.00 | 0.00 | 0.00 | 36 | 1005.4 |
| 20260509130032 | 57 | 244 | 0.0 | 1.7 | 0.00 | 0.00 | 0.00 | 39 | 1005.2 |
| 20260509124529 | 56 | 193 | 0.0 | 2.6 | 0.00 | 0.00 | 0.00 | 42 | 1005.0 |
| 20260509123026 | 57 | 267 | 0.0 | 0.9 | 0.00 | 0.00 | 0.00 | 39 | 1005.0 |
| 20260509121526 | 58 | 267 | 0.0 | 0.0 | 0.00 | 0.00 | 0.00 | 37 | 1004.8 |
| 20260509120022 | 59 | 267 | 0.0 | 2.6 | 0.00 | 0.00 | 0.00 | 35 | 1004.6 |
| 20260509114521 | 60 | 360 | 0.0 | 5.2 | 0.00 | 0.00 | 0.00 | 34 | 1004.4 |
| 20260509113019 | 60 | 360 | 0.9 | 8.7 | 0.00 | 0.00 | 0.00 | 34 | 1004.2 |
| 20260509111519 | 61 | 360 | 0.9 | 7.8 | 0.00 | 0.00 | 0.00 | 33 | 1004.2 |
| 20260509110018 | 60 | 281 | 0.9 | 7.8 | 0.00 | 0.00 | 0.00 | 34 | 1004.2 |
| 20260509104518 | 60 | 360 | 0.0 | 5.2 | 0.00 | 0.01 | 0.00 | 34 | 1004.3 |
| 20260509103016 | 60 | 360 | 0.0 | 3.5 | 0.00 | 0.01 | 0.00 | 34 | 1004.3 |
| 20260509101518 | 60 | 360 | 0.9 | 5.2 | 0.00 | 0.01 | 0.00 | 34 | 1004.3 |
| 20260509100015 | 60 | 269 | 0.0 | 6.1 | 0.00 | 0.01 | 0.00 | 34 | 1004.4 |
| 20260509094513 | 60 | 360 | 1.7 | 8.7 | 0.00 | 0.01 | 0.00 | 35 | 1004.5 |
| 20260509093011 | 59 | 257 | 0.0 | 6.1 | 0.00 | 0.01 | 0.00 | 37 | 1004.4 |
| 20260509091507 | 51 | 272 | 0.0 | 2.6 | 0.00 | 0.01 | 0.00 | 57 | 1004.2 |
| 20260509090004 | 49 | 259 | 0.0 | 0.0 | 0.00 | 0.01 | 0.00 | 68 | 1004.2 |
| 20260509084502 | 49 | 259 | 0.0 | 0.0 | 0.00 | 0.01 | 0.00 | 68 | 1004.2 |
| 20260509083101 | 51 | 258 | 0.0 | 0.0 | 0.00 | 0.01 | 0.00 | 66 | 1004.2 |
| 20260509081555 | 52 | 258 | 0.0 | 0.0 | 0.00 | 0.01 | 0.00 | 63 | 1004.4 |
| 20260509080059 | 52 | 258 | 0.0 | 0.0 | 0.00 | 0.01 | 0.00 | 63 | 1004.5 |
| 20260509074552 | 52 | 260 | 0.0 | 0.9 | 0.00 | 0.01 | 0.00 | 62 | 1004.6 |
| 20260509073049 | 54 | 260 | 0.0 | 0.0 | 0.00 | 0.01 | 0.00 | 60 | 1004.9 |
| 20260509071549 | 54 | 261 | 0.0 | 1.7 | 0.00 | 0.01 | 0.00 | 58 | 1005.1 |
| 20260509070046 | 55 | 261 | 0.0 | 0.0 | 0.00 | 0.01 | 0.00 | 56 | 1005.0 |
| 20260509064545 | 55 | 280 | 0.0 | 1.7 | 0.00 | 0.01 | 0.00 | 59 | 1005.0 |
| 20260509063039 | 55 | 360 | 0.0 | 0.9 | 0.00 | 0.01 | 0.00 | 60 | 1005.0 |
| 20260509061542 | 55 | 192 | 0.0 | 0.9 | 0.00 | 0.01 | 0.00 | 60 | 1005.0 |
| 20260509060037 | 55 | 244 | 0.0 | 0.0 | 0.00 | 0.01 | 0.00 | 60 | 1005.3 |
| 20260509054533 | 56 | 360 | 0.0 | 3.5 | 0.00 | 0.01 | 0.01 | 58 | 1005.4 |
| 20260509053044 | 56 | 172 | 0.0 | 0.9 | 0.00 | 0.01 | 0.01 | 58 | 1005.7 |
| 20260509051530 | 56 | 173 | 0.0 | 0.0 | 0.00 | 0.01 | 0.01 | 57 | 1006.0 |
| 20260509050031 | 57 | 173 | 0.0 | 2.6 | 0.00 | 0.01 | 0.01 | 56 | 1006.1 |
| 20260509044529 | 57 | 112 | 0.0 | 0.0 | 0.00 | 0.01 | 0.01 | 56 | 1006.3 |
| 20260509043028 | 58 | 113 | 0.0 | 0.0 | 0.00 | 0.01 | 0.01 | 54 | 1006.5 |
| 20260509041536 | 58 | 360 | 0.0 | 0.0 | 0.00 | 0.01 | 0.01 | 53 | 1006.8 |
| 20260509040029 | 59 | 109 | 0.0 | 0.0 | 0.00 | 0.01 | 0.01 | 52 | 1006.9 |
| 20260509034528 | 59 | 360 | 0.0 | 0.0 | 0.00 | 0.01 | 0.01 | 51 | 1006.9 |
| 20260509033027 | 58 | 360 | 0.0 | 2.6 | 0.00 | 0.01 | 0.01 | 55 | 1006.9 |
| 20260509031526 | 58 | 360 | 0.0 | 0.0 | 0.00 | 0.01 | 0.01 | 56 | 1006.9 |
| 20260509030026 | 60 | 84 | 0.0 | 0.9 | 0.00 | 0.01 | 0.01 | 51 | 1006.8 |
| 20260509024525 | 60 | 82 | 0.0 | 0.0 | 0.00 | 0.01 | 0.01 | 49 | 1006.7 |
| 20260509023024 | 61 | 82 | 0.0 | 0.0 | 0.00 | 0.01 | 0.01 | 47 | 1006.5 |
| 20260509021524 | 62 | 82 | 0.0 | 0.0 | 0.00 | 0.01 | 0.01 | 46 | 1006.4 |
| 20260509020025 | 62 | 82 | 0.0 | 0.0 | 0.00 | 0.01 | 0.01 | 45 | 1006.2 |
| 20260509014524 | 63 | 360 | 0.0 | 0.0 | 0.00 | 0.01 | 0.01 | 44 | 1006.1 |
| 20260509013023 | 63 | 360 | 0.0 | 2.6 | 0.00 | 0.01 | 0.01 | 44 | 1006.0 |
| 20260509011528 | 64 | 360 | 0.0 | 3.5 | 0.00 | 0.01 | 0.01 | 44 | 1006.0 |
| 20260509010036 | 65 | 360 | 0.0 | 7.0 | 0.00 | 0.01 | 0.01 | 42 | 1005.9 |
| 20260509004526 | 65 | 360 | 0.9 | 8.7 | 0.00 | 0.01 | 0.01 | 41 | 1005.9 |
| 20260509003020 | 66 | 45 | 0.0 | 2.6 | 0.00 | 0.01 | 0.01 | 40 | 1005.8 |
| 20260509001519 | 66 | 46 | 0.0 | 2.6 | 0.00 | 0.01 | 0.01 | 40 | 1005.8 |
| 20260509000019 | 66 | 360 | 0.9 | 7.8 | 0.00 | 0.01 | 0.01 | 41 | 1005.9 |
| 20260508234523 | 66 | 360 | 0.0 | 0.9 | 0.00 | 0.01 | 0.01 | 40 | 1005.9 |
| 20260508233018 | 66 | 74 | 0.9 | 4.3 | 0.00 | 0.01 | 0.01 | 40 | 1005.9 |
| 20260508231517 | 67 | 360 | 0.0 | 4.3 | 0.00 | 0.01 | 0.01 | 40 | 1006.0 |
| 20260508230032 | 66 | 360 | 1.7 | 7.8 | 0.00 | 0.01 | 0.01 | 42 | 1006.0 |
| 20260508224515 | 67 | 360 | 0.0 | 4.3 | 0.00 | 0.01 | 0.01 | 41 | 1006.0 |
| 20260508223012 | 65 | 360 | 0.0 | 7.8 | 0.00 | 0.01 | 0.01 | 41 | 1006.1 |
| 20260508221525 | 66 | 92 | 0.9 | 7.0 | 0.00 | 0.01 | 0.01 | 41 | 1006.3 |
| 20260508220009 | 65 | 360 | 0.0 | 3.5 | 0.00 | 0.01 | 0.01 | 44 | 1006.4 |
| 20260508214508 | 65 | 360 | 0.0 | 1.7 | 0.00 | 0.01 | 0.01 | 45 | 1006.5 |
| 20260508213014 | 65 | 360 | 0.9 | 4.3 | 0.00 | 0.01 | 0.01 | 44 | 1006.6 |
| 20260508211507 | 66 | 63 | 0.0 | 0.0 | 0.00 | 0.01 | 0.01 | 43 | 1006.6 |
| 20260508210002 | 69 | 248 | 0.0 | 3.5 | 0.00 | 0.01 | 0.01 | 37 | 1007.0 |
| 20260508204601 | 64 | 11 | 0.0 | 13.0 | 0.00 | 0.01 | 0.01 | 42 | 1007.2 |